Time;durP1;ratioP1;P1;durP2;ratioP2;P2;SDS_P1;SDS_P2;PMS_P1;PMS_P2;Temp;Humidity;BMP_temperature;BMP_pressure;BME280_temperature;BME280_humidity;BME280_pressure;Samples;Min_cycle;Max_cycle;Signal;HPM_P1;HPM_P2
2021/01/16 00:01:21;;;;;;;11.52;5.57;;;16.30;60.30;;;;;;4948599;28;20035;-69
2021/01/16 00:03:46;;;;;;;12.10;5.32;;;16.30;60.10;;;;;;4965576;28;20440;-68
2021/01/16 00:06:14;;;;;;;10.23;5.72;;;16.30;60.20;;;;;;4956490;28;20033;-69
2021/01/16 00:08:42;;;;;;;10.05;5.60;;;16.30;60.50;;;;;;4956520;28;20060;-69
2021/01/16 00:11:08;;;;;;;10.43;5.45;;;16.30;60.40;;;;;;4979881;28;20080;-67
2021/01/16 00:13:34;;;;;;;11.30;5.70;;;16.20;60.30;;;;;;4955033;28;20516;-67
2021/01/16 00:16:00;;;;;;;10.43;5.10;;;16.20;60.40;;;;;;4971105;28;20039;-69
2021/01/16 00:18:26;;;;;;;10.63;5.30;;;16.20;60.50;;;;;;4949249;28;20243;-68
2021/01/16 00:20:53;;;;;;;10.65;4.93;;;16.20;60.80;;;;;;4968155;28;20037;-69
2021/01/16 00:23:22;;;;;;;13.10;5.47;;;16.10;60.60;;;;;;4970590;28;20070;-68
2021/01/16 00:25:47;;;;;;;13.57;5.28;;;16.20;60.60;;;;;;4958484;28;20654;-68
2021/01/16 00:28:25;;;;;;;9.88;5.13;;;16.10;60.60;;;;;;4949125;28;20095;-67
2021/01/16 00:30:51;;;;;;;8.35;4.65;;;16.20;60.70;;;;;;4959220;28;20665;-67
2021/01/16 00:33:36;;;;;;;10.98;4.95;;;16.10;60.40;;;;;;4953173;28;20033;-69
2021/01/16 00:36:05;;;;;;;9.25;4.65;;;16.10;60.50;;;;;;4963686;28;20526;-69
2021/01/16 00:38:37;;;;;;;9.80;5.32;;;16.00;60.80;;;;;;4968949;28;20082;-69
2021/01/16 00:41:03;;;;;;;8.25;4.72;;;16.10;60.30;;;;;;4941373;29;20082;-69
2021/01/16 00:43:29;;;;;;;10.48;4.70;;;16.10;60.30;;;;;;4970854;28;20038;-69
2021/01/16 00:45:54;;;;;;;10.40;4.53;;;16.00;60.40;;;;;;4950704;28;546149;-68
2021/01/16 00:48:22;;;;;;;9.63;4.53;;;16.00;60.20;;;;;;4980165;28;20050;-67
2021/01/16 00:50:50;;;;;;;8.77;4.55;;;16.10;60.10;;;;;;4941246;29;20513;-67
2021/01/16 00:53:17;;;;;;;8.05;4.40;;;16.10;60.10;;;;;;4963676;28;20046;-68
2021/01/16 00:55:42;;;;;;;8.55;4.15;;;16.00;60.00;;;;;;4955244;28;20023;-68
2021/01/16 00:58:13;;;;;;;8.55;4.10;;;16.00;59.90;;;;;;4970085;28;20027;-69
2021/01/16 01:00:45;;;;;;;9.98;4.35;;;16.00;59.70;;;;;;4964874;28;20018;-69
2021/01/16 01:03:18;;;;;;;7.80;4.00;;;16.00;59.80;;;;;;4974892;28;20027;-68
2021/01/16 01:05:45;;;;;;;9.32;4.53;;;16.00;59.80;;;;;;4966532;28;20027;-67
2021/01/16 01:08:10;;;;;;;7.90;3.90;;;16.00;59.70;;;;;;4961745;28;20027;-69
2021/01/16 01:10:43;;;;;;;9.93;4.20;;;16.00;59.80;;;;;;4955808;28;20106;-69
2021/01/16 01:13:09;;;;;;;9.45;4.50;;;16.00;59.60;;;;;;4967747;28;20480;-67
2021/01/16 01:15:36;;;;;;;8.45;4.18;;;16.00;59.50;;;;;;4940485;28;20039;-67
2021/01/16 01:18:02;;;;;;;7.63;4.25;;;16.00;59.60;;;;;;4980286;28;20031;-67
2021/01/16 01:20:28;;;;;;;9.18;4.10;;;16.00;59.60;;;;;;4967856;28;20059;-68
2021/01/16 01:22:54;;;;;;;6.90;3.67;;;15.90;59.50;;;;;;4955522;28;20062;-69
2021/01/16 01:25:20;;;;;;;8.02;3.63;;;15.90;59.50;;;;;;4950174;28;20062;-67
2021/01/16 01:27:57;;;;;;;7.75;3.85;;;15.90;59.60;;;;;;4971115;28;20019;-66
2021/01/16 01:30:25;;;;;;;7.35;3.85;;;15.90;59.70;;;;;;4963046;28;20128;-69
2021/01/16 01:32:51;;;;;;;8.02;3.67;;;15.80;59.80;;;;;;4970593;28;20500;-69
2021/01/16 01:35:18;;;;;;;7.57;3.65;;;15.80;59.80;;;;;;4974476;28;20046;-68
2021/01/16 01:37:47;;;;;;;6.57;3.67;;;15.80;59.80;;;;;;4979130;28;20081;-67
2021/01/16 01:40:14;;;;;;;6.40;3.65;;;15.80;60.30;;;;;;4937935;28;20070;-69
2021/01/16 01:42:40;;;;;;;7.45;3.70;;;15.80;59.70;;;;;;4976174;28;20037;-69
2021/01/16 01:45:08;;;;;;;8.40;3.85;;;15.80;59.70;;;;;;4948726;28;20266;-69
2021/01/16 01:47:39;;;;;;;7.25;3.67;;;15.70;59.60;;;;;;4960953;28;20073;-70
2021/01/16 01:50:06;;;;;;;9.38;4.25;;;15.70;59.70;;;;;;4959980;28;20559;-67
2021/01/16 01:52:34;;;;;;;6.32;3.50;;;15.70;59.60;;;;;;4972968;28;20053;-66
2021/01/16 01:54:59;;;;;;;8.55;4.05;;;15.70;59.70;;;;;;4945877;28;20038;-68
2021/01/16 01:57:26;;;;;;;7.15;3.30;;;15.80;59.60;;;;;;4953470;28;20118;-67
2021/01/16 01:59:54;;;;;;;7.88;3.58;;;15.70;59.60;;;;;;4951213;28;20034;-69
2021/01/16 02:02:20;;;;;;;6.93;3.35;;;15.60;59.70;;;;;;4949018;28;20031;-69
2021/01/16 02:04:49;;;;;;;8.57;3.55;;;15.70;59.60;;;;;;4955968;28;20039;-67
2021/01/16 02:07:37;;;;;;;7.65;3.65;;;15.60;59.40;;;;;;4954654;28;20058;-69
2021/01/16 02:10:24;;;;;;;6.47;3.25;;;15.60;59.40;;;;;;4965266;28;20030;-69
2021/01/16 02:12:53;;;;;;;7.05;3.03;;;15.60;59.50;;;;;;4961686;28;20484;-68
2021/01/16 02:15:49;;;;;;;8.35;3.38;;;15.60;59.60;;;;;;4966277;28;20114;-66
2021/01/16 02:18:46;;;;;;;8.73;3.10;;;15.60;59.60;;;;;;4969919;28;20086;-69
2021/01/16 02:21:19;;;;;;;6.18;3.38;;;15.60;59.50;;;;;;4949532;28;20046;-69
2021/01/16 02:24:04;;;;;;;7.13;3.45;;;15.60;59.40;;;;;;4973278;28;20038;-67
2021/01/16 02:27:03;;;;;;;6.35;3.08;;;15.50;59.40;;;;;;4975227;28;20031;-68
2021/01/16 02:29:29;;;;;;;5.68;3.13;;;15.50;59.40;;;;;;4959293;28;20030;-68
2021/01/16 02:32:03;;;;;;;8.38;3.65;;;15.50;59.40;;;;;;4970090;28;20496;-68
2021/01/16 02:34:32;;;;;;;6.30;3.20;;;15.50;59.40;;;;;;4960981;28;20038;-69
2021/01/16 02:37:29;;;;;;;6.88;3.33;;;15.50;59.30;;;;;;4965533;28;20468;-69
2021/01/16 02:40:13;;;;;;;6.78;3.40;;;15.50;59.10;;;;;;4978270;28;20501;-70
2021/01/16 02:43:19;;;;;;;6.97;3.40;;;15.50;59.40;;;;;;4965388;28;20030;-69
2021/01/16 02:46:08;;;;;;;6.47;3.55;;;15.50;59.30;;;;;;4942137;28;20034;-67
2021/01/16 02:49:10;;;;;;;7.13;3.22;;;15.40;59.20;;;;;;4972650;28;20022;-70
2021/01/16 02:52:07;;;;;;;6.53;3.10;;;15.40;59.20;;;;;;4933472;28;20544;-69
2021/01/16 02:54:37;;;;;;;6.05;2.80;;;15.40;59.20;;;;;;4958798;28;20054;-69
2021/01/16 02:57:05;;;;;;;5.13;2.72;;;15.40;59.10;;;;;;4952700;28;20027;-69
2021/01/16 02:59:34;;;;;;;6.80;3.10;;;15.30;59.20;;;;;;4935354;29;20023;-69
2021/01/16 03:02:00;;;;;;;8.25;3.58;;;15.30;59.70;;;;;;4963473;28;20026;-70
2021/01/16 03:04:26;;;;;;;6.22;2.92;;;15.40;59.30;;;;;;4974737;28;20101;-67
2021/01/16 03:06:52;;;;;;;6.78;3.30;;;15.40;59.10;;;;;;4989562;28;20034;-69
2021/01/16 03:09:18;;;;;;;6.97;3.20;;;15.40;59.10;;;;;;4965335;28;20023;-69
2021/01/16 03:11:45;;;;;;;7.28;3.33;;;15.30;58.90;;;;;;4964092;28;20023;-66
2021/01/16 03:14:12;;;;;;;10.38;3.28;;;15.30;58.80;;;;;;4951004;28;20094;-69
2021/01/16 03:16:56;;;;;;;6.13;3.20;;;15.30;59.10;;;;;;4947310;28;20555;-69
2021/01/16 03:19:27;;;;;;;8.80;3.65;;;15.30;59.00;;;;;;4972837;28;20130;-67
2021/01/16 03:21:53;;;;;;;6.78;3.17;;;15.30;59.10;;;;;;4963538;28;20043;-69
2021/01/16 03:24:19;;;;;;;9.13;3.40;;;15.20;59.00;;;;;;4965053;28;20047;-67
2021/01/16 03:26:44;;;;;;;6.80;3.22;;;15.20;58.90;;;;;;4956805;28;20423;-69
2021/01/16 03:29:10;;;;;;;6.28;3.03;;;15.20;58.80;;;;;;4973665;28;20038;-67
2021/01/16 03:31:35;;;;;;;6.00;3.05;;;15.20;58.80;;;;;;4965448;28;20537;-68
2021/01/16 03:34:01;;;;;;;6.35;3.08;;;15.30;58.90;;;;;;4947165;28;20400;-69
2021/01/16 03:36:26;;;;;;;6.40;3.22;;;15.20;58.70;;;;;;4959338;28;20042;-66
2021/01/16 03:38:52;;;;;;;6.25;3.25;;;15.20;58.70;;;;;;4966343;28;20053;-69
2021/01/16 03:41:17;;;;;;;6.57;3.78;;;15.20;58.70;;;;;;4973468;28;20030;-69
2021/01/16 03:43:43;;;;;;;5.70;3.40;;;15.10;58.70;;;;;;4983576;28;20042;-69
2021/01/16 03:46:08;;;;;;;6.68;3.40;;;15.20;58.70;;;;;;4973795;28;20090;-67
2021/01/16 03:48:35;;;;;;;6.35;3.40;;;15.10;58.80;;;;;;4991303;28;20036;-69
2021/01/16 03:51:00;;;;;;;6.68;3.13;;;15.10;58.80;;;;;;4969312;28;20034;-67
2021/01/16 03:53:26;;;;;;;6.63;3.00;;;15.10;58.90;;;;;;4951883;28;20030;-70
2021/01/16 03:55:51;;;;;;;7.32;3.53;;;15.10;58.90;;;;;;4965281;28;20045;-66
2021/01/16 03:58:17;;;;;;;6.32;3.00;;;15.10;58.70;;;;;;4975814;28;20032;-67
2021/01/16 04:00:43;;;;;;;6.85;3.42;;;15.00;58.80;;;;;;4969401;28;20855;-66
2021/01/16 04:03:08;;;;;;;6.40;3.40;;;15.10;58.60;;;;;;4967704;28;20473;-67
2021/01/16 04:05:34;;;;;;;6.07;3.35;;;15.00;58.70;;;;;;4972566;28;20042;-69
2021/01/16 04:07:59;;;;;;;6.13;3.10;;;15.00;58.60;;;;;;4950277;28;20555;-69
2021/01/16 04:10:25;;;;;;;5.95;3.20;;;15.00;58.60;;;;;;4974919;28;20097;-70
2021/01/16 04:12:50;;;;;;;6.28;3.30;;;15.00;58.60;;;;;;4976005;28;20038;-68
2021/01/16 04:15:16;;;;;;;5.07;3.15;;;15.10;58.30;;;;;;4948595;28;20054;-65
2021/01/16 04:17:41;;;;;;;6.05;3.10;;;15.00;58.20;;;;;;4969648;28;20038;-69
2021/01/16 04:20:07;;;;;;;6.05;3.13;;;15.00;58.50;;;;;;4942311;28;20062;-69
2021/01/16 04:22:37;;;;;;;6.18;3.20;;;15.00;58.40;;;;;;4956560;28;20038;-68
2021/01/16 04:25:03;;;;;;;5.40;3.35;;;15.00;58.40;;;;;;4958054;28;20031;-66
2021/01/16 04:27:29;;;;;;;5.80;3.40;;;15.00;58.20;;;;;;4949121;28;20074;-68
2021/01/16 04:29:55;;;;;;;6.65;3.30;;;15.00;58.00;;;;;;4953529;28;20443;-67
2021/01/16 04:32:21;;;;;;;6.40;3.47;;;15.00;58.00;;;;;;4955907;28;20044;-67
2021/01/16 04:34:46;;;;;;;6.10;3.10;;;15.00;58.20;;;;;;4978449;28;20030;-69
2021/01/16 04:37:12;;;;;;;5.20;3.10;;;14.90;58.20;;;;;;4950053;29;20114;-67
2021/01/16 04:39:37;;;;;;;6.63;3.15;;;15.00;58.00;;;;;;4967266;28;20026;-69
2021/01/16 04:42:04;;;;;;;6.47;2.90;;;15.00;57.90;;;;;;4955182;28;20125;-69
2021/01/16 04:44:35;;;;;;;5.90;3.50;;;15.00;57.70;;;;;;4981591;28;20035;-69
2021/01/16 04:47:03;;;;;;;5.97;3.50;;;15.00;57.90;;;;;;4972118;28;20388;-69
2021/01/16 04:49:28;;;;;;;5.90;2.97;;;14.90;57.90;;;;;;4950149;28;20484;-69
2021/01/16 04:51:54;;;;;;;5.90;3.25;;;14.90;58.50;;;;;;4937770;29;20075;-69
2021/01/16 04:54:21;;;;;;;5.93;3.10;;;14.90;58.00;;;;;;4975783;28;20074;-70
2021/01/16 04:56:46;;;;;;;6.10;3.25;;;14.90;58.10;;;;;;4958287;28;20077;-69
2021/01/16 04:59:12;;;;;;;5.28;3.08;;;14.90;58.30;;;;;;4956551;28;20030;-69
2021/01/16 05:01:38;;;;;;;6.43;3.13;;;14.80;58.30;;;;;;4978757;28;20029;-70
2021/01/16 05:04:06;;;;;;;8.00;3.40;;;14.80;58.30;;;;;;4973546;28;20031;-67
2021/01/16 05:06:37;;;;;;;6.88;3.13;;;14.80;58.30;;;;;;4970993;28;20027;-70
2021/01/16 05:09:03;;;;;;;6.90;3.28;;;14.80;58.40;;;;;;4969701;28;20039;-68
2021/01/16 05:11:35;;;;;;;5.55;3.30;;;14.80;58.50;;;;;;4955056;28;20427;-71
2021/01/16 05:14:14;;;;;;;6.18;3.08;;;14.80;58.50;;;;;;4974486;28;20489;-69
2021/01/16 05:16:57;;;;;;;7.50;3.22;;;14.80;58.60;;;;;;4970730;28;20077;-69
2021/01/16 05:19:28;;;;;;;5.55;3.10;;;14.80;58.60;;;;;;4973301;28;20436;-69
2021/01/16 05:21:54;;;;;;;6.25;3.30;;;14.70;58.90;;;;;;4966738;28;20037;-70
2021/01/16 05:24:20;;;;;;;6.85;3.22;;;14.70;59.30;;;;;;4978182;28;20519;-68
2021/01/16 05:26:59;;;;;;;6.65;3.42;;;14.70;58.90;;;;;;4968796;28;20026;-69
2021/01/16 05:29:25;;;;;;;6.63;3.17;;;14.70;58.80;;;;;;4960931;28;20052;-69
2021/01/16 05:31:52;;;;;;;6.28;3.22;;;14.60;58.90;;;;;;4943881;29;20524;-69
2021/01/16 05:34:19;;;;;;;7.50;3.95;;;14.60;58.80;;;;;;4975595;28;20645;-69
2021/01/16 05:36:45;;;;;;;6.03;3.60;;;14.60;58.80;;;;;;4981051;28;20026;-69
2021/01/16 05:39:12;;;;;;;5.57;3.13;;;14.60;58.80;;;;;;4991417;28;20521;-69
2021/01/16 05:41:39;;;;;;;6.03;3.55;;;14.70;58.70;;;;;;4953111;28;20117;-69
2021/01/16 05:44:06;;;;;;;6.07;3.40;;;14.60;58.70;;;;;;4960451;28;20035;-67
2021/01/16 05:46:31;;;;;;;7.65;3.70;;;14.60;58.80;;;;;;4962165;28;20069;-67
2021/01/16 05:48:58;;;;;;;6.22;3.30;;;14.60;58.90;;;;;;4965584;28;20447;-69
2021/01/16 05:51:24;;;;;;;7.00;3.47;;;14.60;58.90;;;;;;4968388;28;20499;-66
2021/01/16 05:53:50;;;;;;;6.38;3.22;;;14.60;58.90;;;;;;4982323;28;20034;-67
2021/01/16 05:56:16;;;;;;;6.20;3.20;;;14.60;59.00;;;;;;4967643;28;20130;-70
2021/01/16 05:58:44;;;;;;;6.45;3.28;;;14.50;59.00;;;;;;4958963;28;20034;-69
2021/01/16 06:01:21;;;;;;;7.75;3.47;;;14.50;59.40;;;;;;4969270;28;20370;-69
2021/01/16 06:03:51;;;;;;;8.60;3.40;;;14.60;59.00;;;;;;4973623;28;20031;-69
2021/01/16 06:06:17;;;;;;;8.13;3.60;;;14.50;59.20;;;;;;4956162;28;20030;-69
2021/01/16 06:08:53;;;;;;;7.90;3.85;;;14.60;58.90;;;;;;4975599;28;20027;-65
2021/01/16 06:11:19;;;;;;;7.43;3.70;;;14.50;59.20;;;;;;4958370;28;20054;-69
2021/01/16 06:13:48;;;;;;;6.28;3.42;;;14.50;59.20;;;;;;4960566;28;20491;-66
2021/01/16 06:16:18;;;;;;;6.43;3.00;;;14.50;59.30;;;;;;4977243;28;20507;-69
2021/01/16 06:18:54;;;;;;;6.63;3.63;;;14.50;59.20;;;;;;4970492;28;20034;-70
2021/01/16 06:21:29;;;;;;;7.38;3.60;;;14.50;59.20;;;;;;4966658;28;20399;-67
2021/01/16 06:23:57;;;;;;;6.53;3.33;;;14.40;59.10;;;;;;4965991;28;20393;-67
2021/01/16 06:26:23;;;;;;;6.70;4.00;;;14.40;59.10;;;;;;4970356;28;20023;-67
2021/01/16 06:29:02;;;;;;;7.15;3.30;;;14.40;59.10;;;;;;4953028;28;20029;-69
2021/01/16 06:31:33;;;;;;;6.82;3.45;;;14.40;59.10;;;;;;4967584;28;20098;-65
2021/01/16 06:34:05;;;;;;;7.63;3.72;;;14.40;59.20;;;;;;4971029;28;20027;-69
2021/01/16 06:36:35;;;;;;;5.63;3.20;;;14.40;59.10;;;;;;4967569;28;20026;-67
2021/01/16 06:39:08;;;;;;;7.10;3.50;;;14.40;59.10;;;;;;4965887;28;20035;-69
2021/01/16 06:41:36;;;;;;;7.05;3.58;;;14.30;59.20;;;;;;4964829;28;20062;-69
2021/01/16 06:44:02;;;;;;;7.32;3.60;;;14.30;59.20;;;;;;4970800;28;20114;-68
2021/01/16 06:46:48;;;;;;;6.88;3.47;;;14.40;59.30;;;;;;4967625;28;20027;-67
2021/01/16 06:49:34;;;;;;;7.25;3.60;;;14.30;59.30;;;;;;4973166;28;20034;-68
2021/01/16 06:52:07;;;;;;;6.43;3.65;;;14.30;59.60;;;;;;4974142;28;20100;-69
2021/01/16 06:54:37;;;;;;;8.18;3.63;;;14.30;59.70;;;;;;4975288;28;20046;-69
2021/01/16 06:57:12;;;;;;;6.45;3.60;;;14.30;59.60;;;;;;4973582;28;20492;-68
2021/01/16 06:59:42;;;;;;;6.57;3.80;;;14.20;60.40;;;;;;4970139;28;20117;-68
2021/01/16 07:02:17;;;;;;;7.22;3.88;;;14.30;59.30;;;;;;4965616;28;20030;-69
2021/01/16 07:05:00;;;;;;;7.85;4.10;;;14.30;59.20;;;;;;4959815;28;20109;-68
2021/01/16 07:07:34;;;;;;;8.85;4.35;;;14.40;59.40;;;;;;4947747;28;20030;-68
2021/01/16 07:10:11;;;;;;;11.43;4.35;;;14.30;60.00;;;;;;4943213;28;20053;-66
2021/01/16 07:12:43;;;;;;;6.53;3.72;;;14.40;60.80;;;;;;4964625;28;20038;-69
2021/01/16 07:15:09;;;;;;;9.80;3.95;;;14.40;60.30;;;;;;4953262;28;20030;-67
2021/01/16 07:17:37;;;;;;;11.35;4.15;;;14.40;60.10;;;;;;4954187;28;20035;-67
2021/01/16 07:20:07;;;;;;;11.63;4.30;;;14.40;59.90;;;;;;4956826;28;20151;-68
2021/01/16 07:22:37;;;;;;;21.77;6.72;;;14.50;60.00;;;;;;4953697;28;20037;-69
2021/01/16 07:25:05;;;;;;;14.50;5.75;;;14.70;60.00;;;;;;4972240;28;20061;-71
2021/01/16 07:27:33;;;;;;;36.40;26.25;;;14.70;58.60;;;;;;4958558;28;20408;-69
2021/01/16 07:30:03;;;;;;;27.08;20.33;;;14.80;58.20;;;;;;4956058;28;20035;-69
2021/01/16 07:32:36;;;;;;;17.27;11.75;;;14.70;58.30;;;;;;4956641;28;20023;-70
2021/01/16 07:35:02;;;;;;;14.00;7.90;;;14.80;58.40;;;;;;4969682;28;20587;-69
2021/01/16 07:37:30;;;;;;;11.73;7.60;;;14.90;58.20;;;;;;4963060;28;20034;-70
2021/01/16 07:39:57;;;;;;;9.88;6.57;;;15.00;57.90;;;;;;4969392;28;20035;-69
2021/01/16 07:42:26;;;;;;;10.63;6.50;;;15.10;57.90;;;;;;4980622;28;20026;-71
2021/01/16 07:45:08;;;;;;;9.25;6.20;;;15.20;57.80;;;;;;4968429;28;20120;-69
2021/01/16 07:47:39;;;;;;;11.02;5.60;;;15.20;57.70;;;;;;4979485;28;20065;-69
2021/01/16 07:50:09;;;;;;;;;;;15.10;57.70;;;;;;4973858;28;20026;-68
2021/01/16 07:52:39;;;;;;;10.30;6.70;;;15.10;58.00;;;;;;4922925;29;19918;-69
2021/01/16 07:55:07;;;;;;;10.20;6.40;;;15.10;58.10;;;;;;4964369;28;20050;-69
2021/01/16 07:57:34;;;;;;;10.40;6.07;;;15.00;57.80;;;;;;4957820;28;20054;-70
2021/01/16 08:00:08;;;;;;;8.77;5.57;;;15.00;57.80;;;;;;4954538;29;20519;-69
2021/01/16 08:02:54;;;;;;;9.52;6.20;;;15.00;57.90;;;;;;4949723;28;20122;-69
2021/01/16 08:05:25;;;;;;;10.23;5.85;;;15.00;58.00;;;;;;4964294;28;20114;-70
2021/01/16 08:08:22;;;;;;;9.87;5.17;;;15.00;58.20;;;;;;4952841;28;20031;-69
2021/01/16 08:10:54;;;;;;;9.77;4.88;;;15.00;58.30;;;;;;4971884;28;20485;-70
2021/01/16 08:13:22;;;;;;;10.07;5.72;;;15.00;58.40;;;;;;4966150;28;20026;-68
2021/01/16 08:15:49;;;;;;;12.07;5.40;;;15.10;58.80;;;;;;4957791;28;20043;-70
2021/01/16 08:18:22;;;;;;;9.20;5.13;;;15.30;58.50;;;;;;4978458;28;20556;-69
2021/01/16 08:20:49;;;;;;;10.68;6.65;;;15.30;58.90;;;;;;4958584;28;20045;-69
2021/01/16 08:23:24;;;;;;;20.30;7.05;;;15.50;59.30;;;;;;4977368;28;20034;-67
2021/01/16 08:25:50;;;;;;;15.32;5.18;;;15.70;59.50;;;;;;4956284;28;20027;-67
2021/01/16 08:28:26;;;;;;;18.08;8.15;;;15.80;59.60;;;;;;4948998;28;20086;-70
2021/01/16 08:30:52;;;;;;;24.65;8.32;;;15.80;59.70;;;;;;4977253;28;20026;-73
2021/01/16 08:33:29;;;;;;;29.23;8.70;;;15.90;60.10;;;;;;4965059;28;20037;-71
2021/01/16 08:35:55;;;;;;;33.40;9.88;;;15.90;60.30;;;;;;4955940;28;20447;-68
2021/01/16 08:38:23;;;;;;;26.92;9.23;;;16.00;59.70;;;;;;4977211;28;20061;-69
2021/01/16 08:40:49;;;;;;;25.63;9.07;;;16.00;60.40;;;;;;4958391;28;20145;-66
2021/01/16 08:43:41;;;;;;;29.65;7.90;;;16.00;59.60;;;;;;4966728;28;20562;-66
2021/01/16 08:46:16;;;;;;;23.13;8.20;;;16.10;59.40;;;;;;4946067;28;20077;-66
2021/01/16 08:48:56;;;;;;;22.48;7.97;;;16.10;59.80;;;;;;4966132;28;20018;-67
2021/01/16 08:51:38;;;;;;;20.63;7.38;;;16.10;60.60;;;;;;4966094;28;20373;-67
2021/01/16 08:54:15;;;;;;;21.67;7.53;;;16.00;61.40;;;;;;4971423;28;20081;-67
2021/01/16 08:57:09;;;;;;;24.98;7.47;;;16.10;61.50;;;;;;4954721;28;20031;-68
2021/01/16 08:59:35;;;;;;;20.25;7.10;;;16.10;61.10;;;;;;4956206;28;20145;-67
2021/01/16 09:02:12;;;;;;;19.98;6.38;;;16.10;61.70;;;;;;4954343;28;20511;-68
2021/01/16 09:04:39;;;;;;;17.42;7.00;;;16.10;61.50;;;;;;4959880;28;20054;-67
2021/01/16 09:07:22;;;;;;;17.30;6.55;;;16.10;61.00;;;;;;4970847;28;20038;-69
2021/01/16 09:09:59;;;;;;;20.55;7.25;;;16.10;60.90;;;;;;4963335;28;20023;-67
2021/01/16 09:12:33;;;;;;;56.50;14.52;;;16.10;60.80;;;;;;4965642;28;20019;-68
2021/01/16 09:15:42;;;;;;;56.22;16.17;;;16.10;60.60;;;;;;4960299;28;20061;-66
2021/01/16 09:18:13;;;;;;;53.42;13.55;;;16.00;60.10;;;;;;4888399;29;20176;-68
2021/01/16 09:20:41;;;;;;;59.20;15.07;;;16.00;59.90;;;;;;4892776;29;20032;-66
2021/01/16 09:23:18;;;;;;;55.70;15.40;;;16.20;59.60;;;;;;4936478;28;20165;-67
2021/01/16 09:26:07;;;;;;;51.22;12.65;;;16.30;59.80;;;;;;4968828;28;20377;-66
2021/01/16 09:28:48;;;;;;;46.03;16.63;;;16.20;59.40;;;;;;4979948;28;20026;-68
2021/01/16 09:31:37;;;;;;;45.83;14.50;;;16.30;59.40;;;;;;4960043;28;20023;-66
2021/01/16 09:34:12;;;;;;;31.17;11.80;;;16.40;59.80;;;;;;4957294;28;20038;-68
2021/01/16 09:37:00;;;;;;;36.15;12.52;;;16.60;61.60;;;;;;4944102;28;20500;-65
2021/01/16 09:39:29;;;;;;;30.83;10.55;;;16.60;60.60;;;;;;4969163;28;20114;-64
2021/01/16 09:41:57;;;;;;;30.30;10.63;;;16.50;60.20;;;;;;4967242;28;20528;-65
2021/01/16 09:44:44;;;;;;;27.35;9.13;;;16.50;60.70;;;;;;4971904;28;20034;-62
2021/01/16 09:47:25;;;;;;;26.08;9.57;;;16.60;59.70;;;;;;4971234;28;20484;-62
2021/01/16 09:49:51;;;;;;;34.47;21.58;;;16.60;59.90;;;;;;4947539;28;20512;-61
2021/01/16 09:52:17;;;;;;;23.92;10.55;;;16.70;60.70;;;;;;4949251;28;20058;-62
2021/01/16 09:54:44;;;;;;;35.80;26.60;;;16.70;59.50;;;;;;4966808;28;20489;-61
2021/01/16 09:57:10;;;;;;;26.00;17.02;;;16.70;59.40;;;;;;4964634;28;20037;-62
2021/01/16 09:59:36;;;;;;;26.13;13.43;;;16.70;58.80;;;;;;4964678;28;20121;-61
2021/01/16 10:02:09;;;;;;;24.60;14.90;;;16.70;58.70;;;;;;4946480;28;20026;-64
2021/01/16 10:04:40;;;;;;;24.60;14.30;;;16.60;58.50;;;;;;4968176;28;20055;-61
2021/01/16 10:07:14;;;;;;;24.40;13.55;;;16.70;58.80;;;;;;4960671;28;20078;-61
2021/01/16 10:09:44;;;;;;;22.02;11.52;;;16.70;59.70;;;;;;4968280;28;20022;-70
2021/01/16 10:12:35;;;;;;;25.73;11.50;;;16.60;58.40;;;;;;4956111;28;20039;-61
2021/01/16 10:15:06;;;;;;;20.45;9.23;;;16.60;58.90;;;;;;4944658;28;20266;-62
2021/01/16 10:17:45;;;;;;;24.88;11.48;;;16.50;58.00;;;;;;4970780;28;20054;-74
2021/01/16 10:20:16;;;;;;;21.67;8.88;;;16.50;59.80;;;;;;4946363;28;20079;-72
2021/01/16 10:22:47;;;;;;;17.83;9.25;;;16.40;59.30;;;;;;4947576;28;20047;-68
2021/01/16 10:25:14;;;;;;;25.35;10.52;;;16.40;58.60;;;;;;4964535;28;20037;-69
2021/01/16 10:27:43;;;;;;;21.63;9.57;;;16.40;58.80;;;;;;4958827;28;20559;-71
2021/01/16 10:30:32;;;;;;;17.65;8.45;;;16.30;58.20;;;;;;4944357;28;20046;-70
2021/01/16 10:32:59;;;;;;;19.38;8.82;;;16.30;58.30;;;;;;4967283;28;20089;-70
2021/01/16 10:35:30;;;;;;;24.90;8.93;;;16.40;57.70;;;;;;4963501;28;20031;-70
2021/01/16 10:38:00;;;;;;;17.75;9.50;;;16.30;56.20;;;;;;4965982;28;20047;-71
2021/01/16 10:40:29;;;;;;;21.42;8.27;;;16.20;56.80;;;;;;4968211;28;20037;-69
2021/01/16 10:42:59;;;;;;;25.20;8.18;;;16.20;56.50;;;;;;4955888;28;20045;-69
2021/01/16 10:45:32;;;;;;;26.45;8.45;;;15.90;57.50;;;;;;4951772;28;20096;-72
2021/01/16 10:48:17;;;;;;;15.95;7.20;;;15.80;58.90;;;;;;4967288;28;20038;-70
2021/01/16 10:50:45;;;;;;;18.77;6.80;;;15.70;57.60;;;;;;4962344;28;20488;-74
2021/01/16 10:53:11;;;;;;;19.88;7.45;;;15.60;58.70;;;;;;4964387;28;20050;-71
2021/01/16 10:55:55;;;;;;;19.50;6.95;;;15.60;58.70;;;;;;4971073;28;20109;-69
2021/01/16 10:58:26;;;;;;;22.42;6.03;;;15.60;59.00;;;;;;4968493;28;20027;-71
2021/01/16 11:00:57;;;;;;;16.40;6.33;;;15.60;58.80;;;;;;4969772;28;20512;-71
2021/01/16 11:03:33;;;;;;;16.35;6.90;;;15.50;58.00;;;;;;4958851;28;20273;-72
2021/01/16 11:06:05;;;;;;;12.77;5.85;;;15.50;59.30;;;;;;4970191;28;20034;-71
2021/01/16 11:08:34;;;;;;;18.92;6.10;;;15.50;59.40;;;;;;4969146;28;20026;-72
2021/01/16 11:11:00;;;;;;;17.63;6.15;;;15.50;59.80;;;;;;4959861;28;20098;-70
2021/01/16 11:13:28;;;;;;;15.00;6.07;;;15.50;59.50;;;;;;4941918;28;20370;-68
2021/01/16 11:16:19;;;;;;;14.93;6.10;;;15.50;59.50;;;;;;4958499;28;20061;-71
2021/01/16 11:18:47;;;;;;;16.25;6.22;;;15.50;60.00;;;;;;4945057;28;20027;-70
2021/01/16 11:21:37;;;;;;;25.92;6.75;;;15.60;60.10;;;;;;4968719;28;20474;-72
2021/01/16 11:24:35;;;;;;;21.90;6.47;;;15.80;59.20;;;;;;4958003;28;20077;-72
2021/01/16 11:27:08;;;;;;;19.63;5.75;;;15.80;59.50;;;;;;4965414;28;20560;-71
2021/01/16 11:29:41;;;;;;;14.30;5.90;;;15.80;59.30;;;;;;4965687;28;20110;-71
2021/01/16 11:32:21;;;;;;;12.50;5.05;;;15.80;59.40;;;;;;4954885;28;20038;-70
2021/01/16 11:35:14;;;;;;;22.73;6.55;;;15.70;58.80;;;;;;4957383;28;20404;-73
2021/01/16 11:37:47;;;;;;;13.38;5.88;;;15.70;59.40;;;;;;4969240;28;20027;-71
2021/01/16 11:40:31;;;;;;;13.48;5.32;;;15.60;59.30;;;;;;4958317;28;20027;-74
2021/01/16 11:43:15;;;;;;;18.38;5.68;;;15.60;59.50;;;;;;4967978;28;20058;-72
2021/01/16 11:45:41;;;;;;;12.05;5.35;;;15.60;59.60;;;;;;4969819;28;20121;-73
2021/01/16 11:48:07;;;;;;;19.00;6.28;;;15.50;60.30;;;;;;4965254;28;20106;-71
2021/01/16 11:50:35;;;;;;;13.85;5.25;;;15.50;60.10;;;;;;4969343;28;20110;-73
2021/01/16 11:53:10;;;;;;;14.55;5.85;;;15.60;59.40;;;;;;4968627;28;20030;-71
2021/01/16 11:55:36;;;;;;;18.17;5.63;;;15.50;59.00;;;;;;4966843;28;20523;-72
2021/01/16 11:58:03;;;;;;;16.80;5.85;;;15.40;58.50;;;;;;4952189;28;20102;-71
2021/01/16 12:00:29;;;;;;;21.88;6.18;;;15.60;58.80;;;;;;4950590;28;20030;-71
2021/01/16 12:02:57;;;;;;;24.15;8.70;;;15.50;59.00;;;;;;4958498;28;20404;-72
2021/01/16 12:05:23;;;;;;;26.33;7.65;;;15.50;59.60;;;;;;4946688;28;20038;-72
2021/01/16 12:07:51;;;;;;;18.08;6.63;;;15.50;58.80;;;;;;4975592;28;20058;-73
2021/01/16 12:10:21;;;;;;;19.75;6.18;;;15.50;58.60;;;;;;4975743;28;20023;-71
2021/01/16 12:12:48;;;;;;;14.88;5.90;;;15.50;58.50;;;;;;4973914;28;20030;-71
2021/01/16 12:15:24;;;;;;;15.75;5.43;;;15.40;58.30;;;;;;4959156;28;20038;-73
2021/01/16 12:17:51;;;;;;;15.70;5.93;;;15.40;59.00;;;;;;4959993;28;20030;-73
2021/01/16 12:20:19;;;;;;;12.55;5.47;;;15.40;59.10;;;;;;4962498;28;20039;-71
2021/01/16 12:22:49;;;;;;;16.02;5.80;;;15.50;58.10;;;;;;4970783;28;20031;-71
2021/01/16 12:25:17;;;;;;;18.08;6.43;;;15.50;58.20;;;;;;4954752;28;20530;-68
2021/01/16 12:27:53;;;;;;;20.08;6.75;;;15.50;61.10;;;;;;4971116;28;20042;-69
2021/01/16 12:30:24;;;;;;;19.25;6.93;;;15.50;62.80;;;;;;4971994;28;20023;-68
2021/01/16 12:32:50;;;;;;;17.85;7.13;;;15.60;62.40;;;;;;4955457;28;20071;-70
2021/01/16 12:35:24;;;;;;;16.98;7.18;;;15.50;61.30;;;;;;4967210;28;20496;-71
2021/01/16 12:37:50;;;;;;;14.98;5.97;;;15.40;60.60;;;;;;4944388;28;20396;-69
2021/01/16 12:40:21;;;;;;;17.50;6.43;;;15.50;60.80;;;;;;4969465;28;20026;-69
2021/01/16 12:42:47;;;;;;;16.77;6.40;;;15.50;60.30;;;;;;4953354;28;20506;-71
2021/01/16 12:45:15;;;;;;;15.98;5.97;;;15.50;59.30;;;;;;4955844;28;20281;-71
2021/01/16 12:47:47;;;;;;;24.50;7.18;;;15.50;60.30;;;;;;4953355;28;20023;-70
2021/01/16 12:50:13;;;;;;;17.15;7.55;;;15.50;60.20;;;;;;4972322;28;20133;-73
2021/01/16 12:52:45;;;;;;;18.05;6.75;;;15.40;60.30;;;;;;4972684;28;20422;-72
2021/01/16 12:55:11;;;;;;;;;;;15.50;60.80;;;;;;4973859;28;20093;-71
2021/01/16 12:57:38;;;;;;;14.65;5.57;;;15.40;60.30;;;;;;4972307;28;19953;-69
2021/01/16 13:00:10;;;;;;;17.80;6.20;;;15.50;60.20;;;;;;4956390;28;20050;-72
2021/01/16 13:02:36;;;;;;;18.30;6.05;;;15.40;61.70;;;;;;4973163;28;20552;-70